Flight Track Log - Related Links

Times and Time Zones

All times are in EDT time to prevent confusion due to time zone crossing. See the DLH1804 flight status page for this flight to view local times or setup timezone preferences in your user account.

Time Position Orientation Groundspeed Altitude Reporting Facility
EDT Latitude Longitude Course Direction KTS MPH feet Rate Location/Type
Tue 09:13:00 AM 47.9721 10.8113 240° Southwest  Level Estimated
Tue 09:14:00 AM 47.9077 10.6502 239° Southwest  Level Estimated
Tue 09:15:00 AM 47.8431 10.4895 239° Southwest  Level Estimated
Tue 09:16:00 AM 47.7782 10.3293 239° Southwest  Level Estimated
Tue 09:17:00 AM 47.7131 10.1694 239° Southwest  Level Estimated
Tue 09:18:00 AM 47.6478 10.0100 239° Southwest  Level Estimated
Tue 09:19:00 AM 47.5823 9.8509 239° Southwest  Level Estimated
Tue 09:20:00 AM 47.5166 9.6922 239° Southwest  Level Estimated
Tue 09:21:00 AM 47.4506 9.5340 238° Southwest  Level Estimated
Tue 09:22:00 AM 47.3844 9.3761 238° Southwest  Level Estimated
Tue 09:23:00 AM 47.3180 9.2186 238° Southwest  Level Estimated
Tue 09:24:00 AM 47.2514 9.0616 238° Southwest  Level Estimated
Tue 09:25:00 AM 47.1846 8.9049 238° Southwest  Level Estimated
Tue 09:26:00 AM 47.1176 8.7486 238° Southwest  Level Estimated
Tue 09:27:00 AM 47.0503 8.5927 238° Southwest  Level Estimated
Tue 09:28:00 AM 46.9828 8.4372 238° Southwest  Level Estimated
Tue 09:29:00 AM 46.9152 8.2821 237° Southwest  Level Estimated
Tue 09:30:00 AM 46.8473 8.1274 237° Southwest  Level Estimated
Tue 09:31:00 AM 46.7792 7.9730 237° Southwest  Level Estimated
Tue 09:32:00 AM 46.7109 7.8191 237° Southwest  Level Estimated
Tue 09:33:00 AM 46.6424 7.6656 237° Southwest  Level Estimated
Tue 09:34:00 AM 46.5737 7.5124 237° Southwest  Level Estimated
Tue 09:35:00 AM 46.5048 7.3596 237° Southwest  Level Estimated
Tue 09:36:00 AM 46.4357 7.2073 237° Southwest  Level Estimated
Tue 09:37:00 AM 46.3664 7.0553 237° Southwest  Level Estimated
Tue 09:38:00 AM 46.2969 6.9037 236° Southwest  Level Estimated
Tue 09:39:00 AM 46.2272 6.7524 236° Southwest  Level Estimated
Tue 09:40:00 AM 46.1573 6.6016 236° Southwest  Level Estimated
Tue 09:41:00 AM 46.0872 6.4511 236° Southwest  Level Estimated
Tue 09:42:00 AM 46.0168 6.3011 236° Southwest  Level Estimated
Tue 09:43:00 AM 45.9463 6.1514 236° Southwest  Level Estimated
Tue 09:44:00 AM 45.8756 6.0021 236° Southwest  Level Estimated
Tue 09:45:00 AM 45.8047 5.8531 236° Southwest  Level Estimated
Tue 09:46:00 AM 45.7337 5.7046 236° Southwest  Level Estimated
Tue 09:47:00 AM 45.6624 5.5564 235° Southwest  Level Estimated
Tue 09:48:00 AM 45.5909 5.4086 235° Southwest  Level Estimated
Tue 09:49:00 AM 45.5193 5.2612 235° Southwest  Level Estimated
Tue 09:50:00 AM 45.4474 5.1142 235° Southwest  Level Estimated
Tue 09:51:00 AM 45.3754 4.9675 235° Southwest  Level Estimated
Tue 09:52:00 AM 45.3032 4.8212 235° Southwest  Level Estimated
Tue 09:53:00 AM 45.2308 4.6753 235° Southwest  Level Estimated
Tue 09:54:00 AM 45.1582 4.5297 235° Southwest  Level Estimated
Tue 09:55:00 AM 45.0854 4.3845 235° Southwest  Level Estimated
Tue 09:56:00 AM 45.0124 4.2397 235° Southwest  Level Estimated
Tue 09:57:00 AM 44.9393 4.0953 234° Southwest  Level Estimated
Tue 09:58:00 AM 44.8660 3.9512 234° Southwest  Level Estimated
Tue 09:59:00 AM 44.7924 3.8075 234° Southwest  Level Estimated
Tue 10:00:00 AM 44.7188 3.6642 234° Southwest  Level Estimated
Tue 10:01:00 AM 44.6449 3.5212 234° Southwest  Level Estimated
Tue 10:02:00 AM 44.5709 3.3786 234° Southwest  Level Estimated
Tue 10:03:00 AM 44.4966 3.2363 234° Southwest  Level Estimated
Tue 10:04:00 AM 44.4222 3.0944 234° Southwest  Level Estimated
Tue 10:05:00 AM 44.3477 2.9529 234° Southwest  Level Estimated
Tue 10:06:00 AM 44.2729 2.8117 234° Southwest  Level Estimated
Tue 10:07:00 AM 44.1980 2.6709 233° Southwest  Level Estimated
Tue 10:08:00 AM 44.1229 2.5305 233° Southwest  Level Estimated
Tue 10:09:00 AM 44.0476 2.3904 233° Southwest  Level Estimated
Tue 10:10:00 AM 43.9722 2.2506 233° Southwest  Level Estimated
Tue 10:11:00 AM 43.8966 2.1113 233° Southwest  Level Estimated
Tue 10:12:00 AM 43.8209 1.9722 233° Southwest  Level Estimated
Tue 10:13:00 AM 43.7449 1.8336 233° Southwest  Level Estimated
Tue 10:14:00 AM 43.6688 1.6953 233° Southwest  Level Estimated
Tue 10:15:00 AM 43.5925 1.5573 233° Southwest  Level Estimated
Tue 10:16:00 AM 43.5161 1.4197 233° Southwest  Level Estimated
Tue 10:17:00 AM 43.4395 1.2824 232° Southwest  Level Estimated
Tue 10:18:00 AM 43.3627 1.1455 232° Southwest  Level Estimated
Tue 10:19:00 AM 43.2858 1.0089 232° Southwest  Level Estimated
Tue 10:20:00 AM 43.2087 0.8727 232° Southwest  Level Estimated
Tue 10:21:00 AM 43.1315 0.7368 232° Southwest  Level Estimated
Tue 10:22:00 AM 43.0540 0.6012 232° Southwest  Level Estimated
Tue 10:23:00 AM 42.9765 0.4660 232° Southwest  Level Estimated
Tue 10:24:00 AM 42.8987 0.3311 232° Southwest  Level Estimated
Tue 10:25:00 AM 42.8209 0.1966 232° Southwest  Level Estimated
Tue 10:26:00 AM 42.7428 0.0624 232° Southwest  Level Estimated
Tue 10:27:00 AM 42.6646 -0.0714 232° Southwest  Level Estimated
Tue 10:28:00 AM 42.5862 -0.2049 231° Southwest  Level Estimated
Tue 10:29:00 AM 42.5077 -0.3381 231° Southwest  Level Estimated
Tue 10:30:00 AM 42.4291 -0.4709 231° Southwest  Level Estimated
Tue 10:31:00 AM 42.3502 -0.6034 231° Southwest  Level Estimated
Tue 10:32:00 AM 42.2713 -0.7356 231° Southwest  Level Estimated
Tue 10:33:00 AM 42.1921 -0.8674 231° Southwest  Level Estimated
Tue 10:34:00 AM 42.1129 -0.9990 231° Southwest  Level Estimated
Tue 10:35:00 AM 42.0334 -1.1301 231° Southwest  Level Estimated
Tue 10:36:00 AM 41.9539 -1.2610 231° Southwest  Level Estimated
Tue 10:37:00 AM 41.8741 -1.3915 231° Southwest  Level Estimated
Tue 10:38:00 AM 41.7943 -1.5217 231° Southwest  Level Estimated
Tue 10:39:00 AM 41.7142 -1.6516 230° Southwest  Level Estimated
Tue 10:40:00 AM 41.6341 -1.7812 230° Southwest  Level Estimated
Tue 10:41:00 AM 41.5538 -1.9104 230° Southwest  Level Estimated
Tue 10:42:00 AM 41.4733 -2.0393 230° Southwest  Level Estimated
Tue 10:43:00 AM 41.3927 -2.1679 230° Southwest  Level Estimated
Tue 10:44:00 AM 41.3120 -2.2962 230° Southwest  Level Estimated
Tue 10:45:00 AM 41.2311 -2.4241 230° Southwest  Level Estimated
Tue 10:46:00 AM 41.1501 -2.5518 230° Southwest  Level Estimated
Tue 10:47:00 AM 41.0689 -2.6791 230° Southwest  Level Estimated
Tue 10:48:00 AM 40.9876 -2.8061 230° Southwest  Level Estimated
Tue 10:49:00 AM 40.9062 -2.9328 230° Southwest  Level Estimated
Tue 10:50:00 AM 40.8246 -3.0592 230° Southwest  Level Estimated
Tue 10:51:00 AM 40.7429 -3.1853 229° Southwest  Level Estimated
Tue 10:52:00 AM 40.6610 -3.3110 229° Southwest  Level Estimated
Tue 10:53:00 AM 40.5791 -3.4365 229° Southwest  Level Estimated
Tue 10:54:00 AM 40.4969 -3.5616 229° Southwest  Level Estimated
Tue 10:55:00 AM 40.4936 -3.5668 229° Southwest  Level Estimated
Tue 10:56:00 AM 40.4936 -3.5668 217° Southwest  Level Estimated
Tue 10:57:00 AM 40.4936 -3.5668 217° Southwest  Level Estimated
Tue 10:58:00 AM 40.4936 -3.5668 217° Southwest  Level Estimated
Tue 10:59:00 AM 40.4936 -3.5668 217° Southwest  Level Estimated
Tue 11:00:00 AM 40.4936 -3.5668 217° Southwest  Level Estimated
Tue 11:01:00 AM 40.4936 -3.5668 217° Southwest  Level Estimated
Tue 11:02:00 AM 40.4936 -3.5668 217° Southwest  Level Estimated
Tue 11:03:00 AM 40.4936 -3.5668 217° Southwest  Level Estimated
Tue 11:04:00 AM 40.4936 -3.5668 217° Southwest  Level Estimated
Tue 11:05:00 AM 40.4936 -3.5668 217° Southwest  Level Estimated
Tue 11:06:00 AM 40.4936 -3.5668 217° Southwest  Level Estimated
Tue 11:07:00 AM 40.4936 -3.5668 217° Southwest  Level Estimated
Tue 11:08:00 AM 40.4936 -3.5668 217° Southwest  Level Estimated

Login

Don't have an account? Register now (free) for customized features, flight alerts, and more!